Latest Weather Observations for Toolara

IDQ60801

Issued at 9:05 pm EST Tuesday 22 July 2014 (issued every 30 minutes, with the page automatically refreshed every 10 minutes)

About weather observations | Map of weather stations | Latest weather observations for QLD | Other Formats
Station Details ID: 040555 Name: TOOLARA (KELLY) Lat: -25.97 Lon: 152.86 Height: 143.0 m
Data from the previous 72 hours. | See also: Recent months at Toolara
Date/Time
EST
Temp
°C
App
Temp
°C
Dew
Point
Rel
Hum
%
Delta-T
°C
Wind Press
QNH
hPa
Press
MSL
hPa
Rain
since 9 am
mm
Dir
 
Spd
km/h
Gust
km/h
Spd
kts
Gust
kts
22/09:00pm 13.8 12.5 12.5 92 0.7 - 11 15 6 8 - - 0.4
22/08:30pm 14.5 13.4 13.2 92 0.7 - 11 15 6 8 - - -
22/08:00pm 14.5 - 13.0 91 0.8 - - - - - - - -
22/07:30pm 14.4 - 13.0 91 0.8 - - - - - - - -
22/07:00pm 14.4 - 12.6 89 1.0 - - - - - - - -
22/06:30pm 14.3 - 12.0 86 1.2 - - - - - - - -
22/06:00pm 14.1 13.0 12.0 87 1.1 - 9 11 5 6 - - -
22/05:30pm 13.7 - 11.6 87 1.1 - - - - - - - -
22/05:00pm 14.2 - 10.8 80 1.8 - - - - - - - -
22/04:30pm 14.1 - 10.7 80 1.8 - - - - - - - -
22/04:00pm 14.0 - 10.0 77 2.1 - - - - - - - -
22/03:30pm 14.5 - 10.7 78 2.0 - - - - - - - -
22/03:00pm 16.6 - 11.7 73 2.7 - - - - - - - 1.0
22/02:30pm 20.2 - 12.2 60 4.5 - - - - - - - -
22/02:00pm 19.7 - 11.2 58 4.7 - - - - - - - -
22/01:30pm 22.2 - 13.5 57 5.1 - - - - - - - -
22/01:00pm 22.3 - 13.4 57 5.2 - - - - - - - -
22/12:30pm 21.3 - 13.2 60 4.7 - - - - - - - -
22/12:00pm 20.8 - 13.5 63 4.2 - - - - - - - -
22/11:30am 19.6 - 12.8 65 3.9 - - - - - - - -
22/11:00am 19.4 - 13.8 70 3.2 - - - - - - - -
22/10:30am 18.4 - 13.9 75 2.6 - - - - - - - -
22/10:00am 18.6 - 14.7 78 2.3 - - - - - - - -
22/09:30am 16.9 - 14.9 88 1.2 - - - - - - - -
22/09:00am 14.6 - 13.6 94 0.6 - - - - - - - 0.0
22/08:30am 13.2 - 12.7 97 0.3 - - - - - - - -
22/08:00am 12.0 - 11.8 99 0.1 - - - - - - - -
22/07:30am 12.3 - 12.1 99 0.1 - - - - - - - -
22/07:00am 12.2 - 12.0 99 0.1 - - - - - - - -
22/06:30am 12.1 - 11.9 99 0.1 - - - - - - - -
22/06:00am 12.0 10.1 11.8 99 0.1 - 13 17 7 9 - - -
22/05:30am 11.9 - 11.7 99 0.1 - - - - - - - -
22/05:00am 12.3 - 12.1 99 0.1 - - - - - - - -
22/04:30am 12.1 - 11.9 99 0.1 - - - - - - - -
22/04:00am 12.3 - 11.8 97 0.3 - - - - - - - -
22/03:30am 12.5 - 11.7 95 0.4 - - - - - - - -
22/03:00am 12.6 - 11.8 95 0.4 - - - - - - - 0.0
22/02:30am 12.5 - 11.6 94 0.5 - - - - - - - -
22/02:00am 12.7 - 11.6 93 0.6 - - - - - - - -
22/01:30am 12.8 - 11.5 92 0.7 - - - - - - - -
22/01:00am 12.9 10.9 11.5 91 0.7 - 13 13 7 7 - - -
22/12:30am 13.2 - 11.6 90 0.9 - - - - - - - -
22/12:00am 13.3 11.7 11.7 90 0.9 - 11 13 6 7 - - -
 
Date/Time
EST
Temp
°C
App
Temp
°C
Dew
Point
Rel
Hum
%
Delta-T
°C
Wind Press
QNH
hPa
Press
MSL
hPa
Rain
since 9 am
mm
Dir
 
Spd
km/h
Gust
km/h
Spd
kts
Gust
kts
21/11:30pm 13.7 - 11.9 89 1.0 - - - - - - - -
21/11:00pm 13.9 - 11.8 87 1.1 - - - - - - - -
21/10:30pm 13.9 - 11.8 87 1.1 - - - - - - - -
21/10:00pm 13.9 - 11.8 87 1.1 - - - - - - - -
21/09:30pm 13.8 - 12.0 89 1.0 - - - - - - - -
21/09:00pm 13.7 - 12.1 90 0.9 - - - - - - - 0.0
21/08:30pm 13.9 - 12.3 90 0.9 - - - - - - - -
21/08:00pm 14.2 - 12.6 90 0.9 - - - - - - - -
21/07:30pm 14.4 - 12.6 89 1.0 - - - - - - - -
21/07:00pm 14.6 - 12.5 87 1.2 - - - - - - - -
21/06:30pm 15.1 - 12.6 85 1.4 - - - - - - - -
21/06:00pm 15.4 - 12.3 82 1.7 - - - - - - - -
21/05:30pm 15.9 - 12.3 79 2.0 - - - - - - - -
21/05:00pm 16.7 - 12.0 74 2.6 - - - - - - - -
21/04:30pm 17.7 - 12.4 71 3.0 - - - - - - - -
21/04:00pm 18.4 - 12.4 68 3.4 - - - - - - - -
21/03:30pm 19.0 - 12.3 65 3.8 - - - - - - - -
21/03:00pm 20.1 - 13.1 64 4.0 - - - - - - - 0.0
21/02:30pm 19.7 - 11.7 60 4.5 - - - - - - - -
21/02:00pm 21.2 - 12.6 58 4.9 - - - - - - - -
21/01:30pm 21.6 - 12.7 57 5.1 - - - - - - - -
21/01:00pm 20.2 - 11.4 57 4.9 - - - - - - - -
21/12:30pm 22.0 - 13.6 59 4.9 - - - - - - - -
21/12:00pm 21.4 - 12.5 57 5.1 - - - - - - - -
21/11:30am 20.2 - 12.9 63 4.2 - - - - - - - -
21/11:00am 19.5 - 12.5 64 3.9 - - - - - - - -
21/10:30am 19.2 - 12.7 66 3.7 - - - - - - - -
21/10:00am 18.6 - 12.8 69 3.3 - - - - - - - -
21/09:30am 17.1 - 12.4 74 2.6 - - - - - - - -
21/09:00am 14.8 - 10.6 76 2.2 - - - - - - - 0.0
21/08:30am 13.2 - 9.3 77 2.0 - - - - - - - -
21/08:00am 11.7 - 7.8 77 1.9 - - - - - - - -
21/07:30am 11.3 - 7.6 78 1.8 - - - - - - - -
21/07:00am 11.0 - 6.9 76 2.0 - - - - - - - -
21/06:30am 10.7 - 6.6 76 1.9 - - - - - - - -
21/06:00am 11.0 - 6.7 75 2.0 - - - - - - - -
21/05:30am 11.0 - 6.4 73 2.2 - - - - - - - -
21/05:00am 11.3 - 6.6 73 2.2 - - - - - - - -
21/04:30am 11.0 - 6.4 73 2.2 - - - - - - - -
21/04:00am 11.6 - 6.7 72 2.3 - - - - - - - -
21/03:30am 11.7 - 6.2 69 2.6 - - - - - - - -
21/03:00am 12.1 - 6.4 68 2.7 - - - - - - - 0.0
21/02:30am 11.4 - 5.5 67 2.7 - - - - - - - -
21/02:00am 12.6 - 6.2 65 3.1 - - - - - - - -
21/01:30am 12.7 - 6.3 65 3.1 - - - - - - - -
21/01:00am 13.2 - 7.0 66 3.0 - - - - - - - -
21/12:30am 12.5 - 7.0 69 2.7 - - - - - - - -
21/12:00am 11.9 - 7.0 72 2.4 - - - - - - - -
 
Date/Time
EST
Temp
°C
App
Temp
°C
Dew
Point
Rel
Hum
%
Delta-T
°C
Wind Press
QNH
hPa
Press
MSL
hPa
Rain
since 9 am
mm
Dir
 
Spd
km/h
Gust
km/h
Spd
kts
Gust
kts
20/11:30pm 12.0 - 6.9 71 2.5 - - - - - - - -
20/11:00pm 12.8 - 7.3 69 2.7 - - - - - - - -
20/10:30pm 13.2 - 7.4 68 2.8 - - - - - - - -
20/10:00pm 13.8 - 7.8 67 3.0 - - - - - - - -
20/09:30pm 14.1 - 8.5 69 2.8 - - - - - - - -
20/09:00pm 14.3 - 8.5 68 2.9 - - - - - - - 0.0
20/08:30pm 14.3 - 8.3 67 3.0 - - - - - - - -
20/08:00pm 14.6 - 8.3 66 3.2 - - - - - - - -
20/07:30pm 14.7 - 8.2 65 3.3 - - - - - - - -
20/07:00pm 15.0 - 8.5 65 3.3 - - - - - - - -
20/06:30pm 14.9 - 8.2 64 3.4 - - - - - - - -
20/06:00pm 14.9 - 7.7 62 3.6 - - - - - - - -
20/05:30pm 15.0 - 7.5 61 3.7 - - - - - - - -
20/05:00pm 15.8 - 7.3 57 4.2 - - - - - - - -
20/04:30pm 17.0 - 6.2 49 5.3 - - - - - - - -
20/04:00pm 18.6 - 4.8 40 6.7 - - - - - - - -
20/03:30pm 19.4 - 5.1 39 7.0 - - - - - - - -
20/03:00pm 18.1 - 4.3 40 6.6 - - - - - - - 0.0
20/02:30pm 19.4 - 4.7 38 7.1 - - - - - - - -
20/02:00pm 19.4 - 5.1 39 7.0 - - - - - - - -
20/01:30pm 19.4 - 5.5 40 6.9 - - - - - - - -
20/01:00pm 19.7 - 6.8 43 6.5 - - - - - - - -
20/12:30pm 18.8 - 6.6 45 6.1 - - - - - - - -
20/12:00pm 18.8 - 6.9 46 6.0 - - - - - - - -
20/11:30am 18.5 - 7.0 47 5.8 - - - - - - - -
20/11:00am 18.6 - 6.8 46 5.9 - - - - - - - -
20/10:30am 17.3 - 6.2 48 5.5 - - - - - - - -
20/10:00am 15.6 - 5.5 51 4.9 - - - - - - - -
20/09:30am 14.1 - 4.9 54 4.3 - - - - - - - -
20/09:00am 12.3 - 3.8 56 3.8 - - - - - - - 0.0
20/08:30am 10.8 - 2.6 57 3.6 - - - - - - - -
20/08:00am 10.1 - 1.7 56 3.5 - - - - - - - -
20/07:30am 9.3 - 1.0 56 3.4 - - - - - - - -
20/07:00am 9.3 - 0.7 55 3.5 - - - - - - - -
20/06:30am 9.3 - 0.7 55 3.5 - - - - - - - -
20/06:00am 8.9 - 0.6 56 3.4 - - - - - - - -
20/05:30am 9.1 - 0.6 55 3.5 - - - - - - - -
20/05:00am 9.4 - 0.8 55 3.5 - - - - - - - -
20/04:30am 8.9 - 0.6 56 3.4 - - - - - - - -
20/04:00am 8.9 - 0.4 55 3.4 - - - - - - - -
20/03:30am 9.2 - 0.4 54 3.6 - - - - - - - -
20/03:00am 9.3 - 0.5 54 3.6 - - - - - - - 0.0
20/02:30am 9.6 - 0.5 53 3.7 - - - - - - - -
20/02:00am 9.4 - 0.3 53 3.7 - - - - - - - -
20/01:30am 9.3 - 0.2 53 3.7 - - - - - - - -
20/01:00am 9.7 - 0.1 51 3.9 - - - - - - - -
20/12:30am 9.9 - 0.0 50 4.0 - - - - - - - -
20/12:00am 10.2 - 0.0 49 4.1 - - - - - - - -
 
Date/Time
EST
Temp
°C
App
Temp
°C
Dew
Point
Rel
Hum
%
Delta-T
°C
Wind Press
QNH
hPa
Press
MSL
hPa
Rain
since 9 am
mm
Dir
 
Spd
km/h
Gust
km/h
Spd
kts
Gust
kts
19/11:30pm 10.6 - -0.2 47 4.4 - - - - - - - -
19/11:00pm 10.9 - -0.2 46 4.5 - - - - - - - -
19/10:30pm 10.9 - -0.5 45 4.6 - - - - - - - -
19/10:00pm 10.9 - -1.2 43 4.8 - - - - - - - -
19/09:30pm 11.4 - -1.0 42 5.0 - - - - - - - -

Other Formats:

Comma delimited format used in spreadsheet applications
http://www.bom.gov.au/fwo/IDQ60801/IDQ60801.94558.axf

JavaScript Object Notation format (JSON) in row-major order
http://www.bom.gov.au/fwo/IDQ60801/IDQ60801.94558.json